sensor_id;sensor_type;location;lat;lon;timestamp;P1;durP1;ratioP1;P2;durP2;ratioP2
54360;SDS011;40258;53.936;27.540;2022-07-06T00:01:27;6.25;;;2.30;;
54360;SDS011;40258;53.936;27.540;2022-07-06T00:03:56;4.28;;;2.45;;
54360;SDS011;40258;53.936;27.540;2022-07-06T00:06:25;4.32;;;2.50;;
54360;SDS011;40258;53.936;27.540;2022-07-06T00:08:53;4.35;;;2.40;;
54360;SDS011;40258;53.936;27.540;2022-07-06T00:11:22;3.55;;;2.30;;
54360;SDS011;40258;53.936;27.540;2022-07-06T00:13:51;5.35;;;2.80;;
54360;SDS011;40258;53.936;27.540;2022-07-06T00:16:20;5.85;;;2.17;;
54360;SDS011;40258;53.936;27.540;2022-07-06T00:18:51;4.25;;;2.45;;
54360;SDS011;40258;53.936;27.540;2022-07-06T00:21:21;4.65;;;2.50;;
54360;SDS011;40258;53.936;27.540;2022-07-06T00:23:49;3.58;;;2.00;;
54360;SDS011;40258;53.936;27.540;2022-07-06T00:26:18;5.38;;;2.40;;
54360;SDS011;40258;53.936;27.540;2022-07-06T00:28:47;4.43;;;2.08;;
54360;SDS011;40258;53.936;27.540;2022-07-06T00:31:16;6.78;;;2.53;;
54360;SDS011;40258;53.936;27.540;2022-07-06T00:33:44;4.07;;;2.30;;
54360;SDS011;40258;53.936;27.540;2022-07-06T00:36:14;7.05;;;2.47;;
54360;SDS011;40258;53.936;27.540;2022-07-06T00:38:43;4.88;;;2.35;;
54360;SDS011;40258;53.936;27.540;2022-07-06T00:41:12;3.65;;;2.00;;
54360;SDS011;40258;53.936;27.540;2022-07-06T00:43:47;4.95;;;2.45;;
54360;SDS011;40258;53.936;27.540;2022-07-06T00:46:18;3.90;;;2.30;;
54360;SDS011;40258;53.936;27.540;2022-07-06T00:48:48;4.85;;;2.20;;
54360;SDS011;40258;53.936;27.540;2022-07-06T00:51:18;3.88;;;2.30;;
54360;SDS011;40258;53.936;27.540;2022-07-06T00:53:49;4.00;;;2.03;;
54360;SDS011;40258;53.936;27.540;2022-07-06T00:56:19;4.03;;;2.35;;
54360;SDS011;40258;53.936;27.540;2022-07-06T00:58:48;3.47;;;2.22;;
54360;SDS011;40258;53.936;27.540;2022-07-06T01:01:17;4.20;;;2.20;;
54360;SDS011;40258;53.936;27.540;2022-07-06T01:03:46;3.33;;;2.00;;
54360;SDS011;40258;53.936;27.540;2022-07-06T01:06:15;4.75;;;2.08;;
54360;SDS011;40258;53.936;27.540;2022-07-06T01:08:45;3.13;;;2.08;;
54360;SDS011;40258;53.936;27.540;2022-07-06T01:11:15;2.42;;;1.90;;
54360;SDS011;40258;53.936;27.540;2022-07-06T01:13:45;2.88;;;1.80;;
54360;SDS011;40258;53.936;27.540;2022-07-06T01:16:16;3.88;;;1.83;;
54360;SDS011;40258;53.936;27.540;2022-07-06T01:18:45;3.15;;;1.73;;
54360;SDS011;40258;53.936;27.540;2022-07-06T01:21:16;8.25;;;2.00;;
54360;SDS011;40258;53.936;27.540;2022-07-06T01:23:45;5.60;;;2.00;;
54360;SDS011;40258;53.936;27.540;2022-07-06T01:26:15;4.15;;;2.03;;
54360;SDS011;40258;53.936;27.540;2022-07-06T01:28:47;3.88;;;1.95;;
54360;SDS011;40258;53.936;27.540;2022-07-06T01:31:18;3.78;;;2.05;;
54360;SDS011;40258;53.936;27.540;2022-07-06T01:33:50;3.22;;;1.83;;
54360;SDS011;40258;53.936;27.540;2022-07-06T01:36:23;4.55;;;1.90;;
54360;SDS011;40258;53.936;27.540;2022-07-06T01:38:53;3.72;;;2.17;;
54360;SDS011;40258;53.936;27.540;2022-07-06T01:41:24;3.22;;;2.00;;
54360;SDS011;40258;53.936;27.540;2022-07-06T01:43:53;5.97;;;2.28;;
54360;SDS011;40258;53.936;27.540;2022-07-06T01:46:22;4.55;;;2.10;;
54360;SDS011;40258;53.936;27.540;2022-07-06T01:48:51;4.35;;;2.20;;
54360;SDS011;40258;53.936;27.540;2022-07-06T01:51:20;2.92;;;2.00;;
54360;SDS011;40258;53.936;27.540;2022-07-06T01:53:50;3.90;;;2.00;;
54360;SDS011;40258;53.936;27.540;2022-07-06T01:56:20;3.83;;;2.30;;
54360;SDS011;40258;53.936;27.540;2022-07-06T01:58:53;3.15;;;2.30;;
54360;SDS011;40258;53.936;27.540;2022-07-06T02:01:23;5.60;;;2.10;;
54360;SDS011;40258;53.936;27.540;2022-07-06T02:03:52;3.78;;;2.03;;
54360;SDS011;40258;53.936;27.540;2022-07-06T02:06:23;4.88;;;2.35;;
54360;SDS011;40258;53.936;27.540;2022-07-06T02:08:52;2.95;;;2.00;;
54360;SDS011;40258;53.936;27.540;2022-07-06T02:11:21;4.50;;;2.17;;
54360;SDS011;40258;53.936;27.540;2022-07-06T02:13:50;3.80;;;2.13;;
54360;SDS011;40258;53.936;27.540;2022-07-06T02:16:18;3.15;;;2.20;;
54360;SDS011;40258;53.936;27.540;2022-07-06T02:18:47;3.78;;;2.10;;
54360;SDS011;40258;53.936;27.540;2022-07-06T02:21:15;3.55;;;1.90;;
54360;SDS011;40258;53.936;27.540;2022-07-06T02:23:45;4.18;;;1.85;;
54360;SDS011;40258;53.936;27.540;2022-07-06T02:26:15;5.78;;;2.13;;
54360;SDS011;40258;53.936;27.540;2022-07-06T02:28:44;3.50;;;1.92;;
54360;SDS011;40258;53.936;27.540;2022-07-06T02:31:14;2.90;;;1.70;;
54360;SDS011;40258;53.936;27.540;2022-07-06T02:33:45;3.17;;;1.60;;
54360;SDS011;40258;53.936;27.540;2022-07-06T02:36:14;3.33;;;1.80;;
54360;SDS011;40258;53.936;27.540;2022-07-06T02:38:43;4.00;;;1.80;;
54360;SDS011;40258;53.936;27.540;2022-07-06T02:41:13;3.10;;;1.77;;
54360;SDS011;40258;53.936;27.540;2022-07-06T02:43:42;4.60;;;1.80;;
54360;SDS011;40258;53.936;27.540;2022-07-06T02:46:10;3.10;;;2.10;;
54360;SDS011;40258;53.936;27.540;2022-07-06T02:48:41;4.07;;;1.92;;
54360;SDS011;40258;53.936;27.540;2022-07-06T02:51:10;3.60;;;1.90;;
54360;SDS011;40258;53.936;27.540;2022-07-06T02:53:38;4.03;;;1.85;;
54360;SDS011;40258;53.936;27.540;2022-07-06T02:56:09;4.40;;;2.20;;
54360;SDS011;40258;53.936;27.540;2022-07-06T02:58:37;4.18;;;2.00;;
54360;SDS011;40258;53.936;27.540;2022-07-06T03:01:06;2.97;;;1.73;;
54360;SDS011;40258;53.936;27.540;2022-07-06T03:03:35;3.47;;;1.63;;
54360;SDS011;40258;53.936;27.540;2022-07-06T03:06:05;3.47;;;2.05;;
54360;SDS011;40258;53.936;27.540;2022-07-06T03:08:34;3.13;;;1.83;;
54360;SDS011;40258;53.936;27.540;2022-07-06T03:11:02;4.50;;;1.90;;
54360;SDS011;40258;53.936;27.540;2022-07-06T03:13:32;3.42;;;2.15;;
54360;SDS011;40258;53.936;27.540;2022-07-06T03:16:01;3.70;;;1.98;;
54360;SDS011;40258;53.936;27.540;2022-07-06T03:18:31;3.60;;;1.85;;
54360;SDS011;40258;53.936;27.540;2022-07-06T03:21:00;3.08;;;2.03;;
54360;SDS011;40258;53.936;27.540;2022-07-06T03:23:30;6.15;;;2.08;;
54360;SDS011;40258;53.936;27.540;2022-07-06T03:25:59;3.28;;;1.60;;
54360;SDS011;40258;53.936;27.540;2022-07-06T03:28:29;8.70;;;1.70;;
54360;SDS011;40258;53.936;27.540;2022-07-06T03:30:59;3.33;;;1.70;;
54360;SDS011;40258;53.936;27.540;2022-07-06T03:33:28;4.65;;;1.92;;
54360;SDS011;40258;53.936;27.540;2022-07-06T03:35:56;4.45;;;2.10;;
54360;SDS011;40258;53.936;27.540;2022-07-06T03:38:24;4.53;;;2.15;;
54360;SDS011;40258;53.936;27.540;2022-07-06T03:40:53;3.70;;;2.03;;
54360;SDS011;40258;53.936;27.540;2022-07-06T03:43:22;5.57;;;2.38;;
54360;SDS011;40258;53.936;27.540;2022-07-06T03:45:53;3.63;;;1.67;;
54360;SDS011;40258;53.936;27.540;2022-07-06T03:48:23;4.57;;;1.98;;
54360;SDS011;40258;53.936;27.540;2022-07-06T03:50:52;3.15;;;1.80;;
54360;SDS011;40258;53.936;27.540;2022-07-06T03:53:20;3.75;;;1.70;;
54360;SDS011;40258;53.936;27.540;2022-07-06T03:55:51;3.70;;;1.73;;
54360;SDS011;40258;53.936;27.540;2022-07-06T03:58:35;6.00;;;1.80;;
54360;SDS011;40258;53.936;27.540;2022-07-06T04:01:03;4.32;;;2.05;;
54360;SDS011;40258;53.936;27.540;2022-07-06T04:03:34;4.32;;;2.20;;
54360;SDS011;40258;53.936;27.540;2022-07-06T04:06:03;5.53;;;1.83;;
54360;SDS011;40258;53.936;27.540;2022-07-06T04:08:33;5.47;;;2.25;;
54360;SDS011;40258;53.936;27.540;2022-07-06T04:11:02;3.50;;;1.77;;
54360;SDS011;40258;53.936;27.540;2022-07-06T04:13:31;4.15;;;1.90;;
54360;SDS011;40258;53.936;27.540;2022-07-06T04:16:00;6.30;;;2.22;;
54360;SDS011;40258;53.936;27.540;2022-07-06T04:18:29;6.22;;;2.40;;
54360;SDS011;40258;53.936;27.540;2022-07-06T04:20:59;4.32;;;1.90;;
54360;SDS011;40258;53.936;27.540;2022-07-06T04:23:30;4.43;;;1.75;;
54360;SDS011;40258;53.936;27.540;2022-07-06T04:26:01;2.45;;;1.70;;
54360;SDS011;40258;53.936;27.540;2022-07-06T04:28:32;6.28;;;2.00;;
54360;SDS011;40258;53.936;27.540;2022-07-06T04:31:01;3.67;;;1.80;;
54360;SDS011;40258;53.936;27.540;2022-07-06T04:33:30;8.30;;;2.33;;
54360;SDS011;40258;53.936;27.540;2022-07-06T04:36:00;5.60;;;1.70;;
54360;SDS011;40258;53.936;27.540;2022-07-06T04:38:36;3.60;;;1.70;;
54360;SDS011;40258;53.936;27.540;2022-07-06T04:41:07;4.03;;;1.90;;
54360;SDS011;40258;53.936;27.540;2022-07-06T04:43:36;4.15;;;1.65;;
54360;SDS011;40258;53.936;27.540;2022-07-06T04:46:04;4.40;;;1.83;;
54360;SDS011;40258;53.936;27.540;2022-07-06T04:48:36;3.85;;;1.48;;
54360;SDS011;40258;53.936;27.540;2022-07-06T04:51:09;3.20;;;1.90;;
54360;SDS011;40258;53.936;27.540;2022-07-06T04:53:38;3.42;;;1.70;;
54360;SDS011;40258;53.936;27.540;2022-07-06T04:56:07;4.38;;;1.90;;
54360;SDS011;40258;53.936;27.540;2022-07-06T04:58:38;3.47;;;1.95;;
54360;SDS011;40258;53.936;27.540;2022-07-06T05:01:10;5.88;;;2.03;;
54360;SDS011;40258;53.936;27.540;2022-07-06T05:03:39;4.18;;;2.05;;
54360;SDS011;40258;53.936;27.540;2022-07-06T05:06:11;3.10;;;1.70;;
54360;SDS011;40258;53.936;27.540;2022-07-06T05:08:40;6.30;;;1.75;;
54360;SDS011;40258;53.936;27.540;2022-07-06T05:11:09;5.72;;;1.88;;
54360;SDS011;40258;53.936;27.540;2022-07-06T05:13:38;3.53;;;1.80;;
54360;SDS011;40258;53.936;27.540;2022-07-06T05:16:07;3.38;;;2.13;;
54360;SDS011;40258;53.936;27.540;2022-07-06T05:18:36;5.50;;;1.90;;
54360;SDS011;40258;53.936;27.540;2022-07-06T05:21:06;4.43;;;2.08;;
54360;SDS011;40258;53.936;27.540;2022-07-06T05:23:36;4.18;;;1.80;;
54360;SDS011;40258;53.936;27.540;2022-07-06T05:26:05;3.22;;;2.00;;
54360;SDS011;40258;53.936;27.540;2022-07-06T05:28:34;4.85;;;1.60;;
54360;SDS011;40258;53.936;27.540;2022-07-06T05:31:04;4.95;;;1.75;;
54360;SDS011;40258;53.936;27.540;2022-07-06T05:33:34;3.15;;;1.75;;
54360;SDS011;40258;53.936;27.540;2022-07-06T05:36:03;3.95;;;1.90;;
54360;SDS011;40258;53.936;27.540;2022-07-06T05:38:33;5.32;;;1.50;;
54360;SDS011;40258;53.936;27.540;2022-07-06T05:41:03;5.20;;;1.95;;
54360;SDS011;40258;53.936;27.540;2022-07-06T05:43:34;5.35;;;2.40;;
54360;SDS011;40258;53.936;27.540;2022-07-06T05:46:04;5.05;;;2.08;;
54360;SDS011;40258;53.936;27.540;2022-07-06T05:48:35;4.53;;;2.28;;
54360;SDS011;40258;53.936;27.540;2022-07-06T05:51:21;7.85;;;2.17;;
54360;SDS011;40258;53.936;27.540;2022-07-06T05:53:53;6.45;;;2.40;;
54360;SDS011;40258;53.936;27.540;2022-07-06T05:56:22;8.13;;;2.40;;
54360;SDS011;40258;53.936;27.540;2022-07-06T05:58:52;5.93;;;2.17;;
54360;SDS011;40258;53.936;27.540;2022-07-06T06:01:20;4.88;;;2.00;;
54360;SDS011;40258;53.936;27.540;2022-07-06T06:04:00;5.38;;;1.77;;
54360;SDS011;40258;53.936;27.540;2022-07-06T06:06:28;5.75;;;1.95;;
54360;SDS011;40258;53.936;27.540;2022-07-06T06:08:59;6.72;;;2.10;;
54360;SDS011;40258;53.936;27.540;2022-07-06T06:11:28;3.67;;;1.80;;
54360;SDS011;40258;53.936;27.540;2022-07-06T06:13:57;5.40;;;2.08;;
54360;SDS011;40258;53.936;27.540;2022-07-06T06:16:26;6.82;;;2.13;;
54360;SDS011;40258;53.936;27.540;2022-07-06T06:18:55;5.32;;;2.20;;
54360;SDS011;40258;53.936;27.540;2022-07-06T06:21:23;5.95;;;2.13;;
54360;SDS011;40258;53.936;27.540;2022-07-06T06:23:52;5.82;;;1.90;;
54360;SDS011;40258;53.936;27.540;2022-07-06T06:26:22;5.28;;;1.92;;
54360;SDS011;40258;53.936;27.540;2022-07-06T06:28:51;4.72;;;1.90;;
54360;SDS011;40258;53.936;27.540;2022-07-06T06:31:19;3.65;;;1.67;;
54360;SDS011;40258;53.936;27.540;2022-07-06T06:33:48;8.40;;;2.25;;
54360;SDS011;40258;53.936;27.540;2022-07-06T06:36:16;4.72;;;2.00;;
54360;SDS011;40258;53.936;27.540;2022-07-06T06:38:45;5.60;;;2.00;;
54360;SDS011;40258;53.936;27.540;2022-07-06T06:41:14;8.10;;;2.15;;
54360;SDS011;40258;53.936;27.540;2022-07-06T06:43:44;5.35;;;2.17;;
54360;SDS011;40258;53.936;27.540;2022-07-06T06:46:17;6.57;;;2.13;;
54360;SDS011;40258;53.936;27.540;2022-07-06T06:48:46;5.13;;;2.20;;
54360;SDS011;40258;53.936;27.540;2022-07-06T06:51:14;6.97;;;2.70;;
54360;SDS011;40258;53.936;27.540;2022-07-06T06:53:42;6.93;;;2.42;;
54360;SDS011;40258;53.936;27.540;2022-07-06T06:56:11;4.50;;;2.33;;
54360;SDS011;40258;53.936;27.540;2022-07-06T06:58:39;8.85;;;2.95;;
54360;SDS011;40258;53.936;27.540;2022-07-06T07:01:09;6.95;;;2.40;;
54360;SDS011;40258;53.936;27.540;2022-07-06T07:03:38;5.80;;;2.33;;
54360;SDS011;40258;53.936;27.540;2022-07-06T07:06:06;7.75;;;2.53;;
54360;SDS011;40258;53.936;27.540;2022-07-06T07:08:35;9.30;;;2.60;;
54360;SDS011;40258;53.936;27.540;2022-07-06T07:11:04;9.75;;;2.65;;
54360;SDS011;40258;53.936;27.540;2022-07-06T07:13:32;6.95;;;2.45;;
54360;SDS011;40258;53.936;27.540;2022-07-06T07:16:01;5.75;;;2.38;;
54360;SDS011;40258;53.936;27.540;2022-07-06T07:18:31;7.38;;;2.22;;
54360;SDS011;40258;53.936;27.540;2022-07-06T07:21:00;6.82;;;2.38;;
54360;SDS011;40258;53.936;27.540;2022-07-06T07:23:28;5.85;;;1.73;;
54360;SDS011;40258;53.936;27.540;2022-07-06T07:25:57;9.65;;;2.42;;
54360;SDS011;40258;53.936;27.540;2022-07-06T07:28:26;9.70;;;2.22;;
54360;SDS011;40258;53.936;27.540;2022-07-06T07:30:54;9.43;;;2.53;;
54360;SDS011;40258;53.936;27.540;2022-07-06T07:33:23;5.35;;;2.10;;
54360;SDS011;40258;53.936;27.540;2022-07-06T07:35:53;9.63;;;2.38;;
54360;SDS011;40258;53.936;27.540;2022-07-06T07:38:21;10.68;;;2.40;;
54360;SDS011;40258;53.936;27.540;2022-07-06T07:40:50;6.20;;;2.55;;
54360;SDS011;40258;53.936;27.540;2022-07-06T07:43:21;5.97;;;2.47;;
54360;SDS011;40258;53.936;27.540;2022-07-06T07:45:49;5.60;;;2.20;;
54360;SDS011;40258;53.936;27.540;2022-07-06T07:48:18;6.43;;;2.00;;
54360;SDS011;40258;53.936;27.540;2022-07-06T07:50:46;6.50;;;2.30;;
54360;SDS011;40258;53.936;27.540;2022-07-06T07:53:17;13.00;;;3.00;;
54360;SDS011;40258;53.936;27.540;2022-07-06T07:55:46;12.60;;;2.90;;
54360;SDS011;40258;53.936;27.540;2022-07-06T07:58:14;8.38;;;2.50;;
54360;SDS011;40258;53.936;27.540;2022-07-06T08:00:43;5.88;;;2.92;;
54360;SDS011;40258;53.936;27.540;2022-07-06T08:03:12;9.15;;;2.53;;
54360;SDS011;40258;53.936;27.540;2022-07-06T08:05:40;6.43;;;2.13;;
54360;SDS011;40258;53.936;27.540;2022-07-06T08:08:09;11.00;;;2.30;;
54360;SDS011;40258;53.936;27.540;2022-07-06T08:10:39;6.35;;;2.20;;
54360;SDS011;40258;53.936;27.540;2022-07-06T08:13:07;7.75;;;2.38;;
54360;SDS011;40258;53.936;27.540;2022-07-06T08:15:36;7.38;;;2.30;;
54360;SDS011;40258;53.936;27.540;2022-07-06T08:18:05;9.18;;;2.35;;
54360;SDS011;40258;53.936;27.540;2022-07-06T08:20:35;8.75;;;2.30;;
54360;SDS011;40258;53.936;27.540;2022-07-06T08:23:04;7.65;;;2.58;;
54360;SDS011;40258;53.936;27.540;2022-07-06T08:25:33;5.60;;;2.25;;
54360;SDS011;40258;53.936;27.540;2022-07-06T08:28:03;7.85;;;2.28;;
54360;SDS011;40258;53.936;27.540;2022-07-06T08:30:31;5.25;;;2.25;;
54360;SDS011;40258;53.936;27.540;2022-07-06T08:33:01;7.85;;;2.60;;
54360;SDS011;40258;53.936;27.540;2022-07-06T08:35:29;4.60;;;2.25;;
54360;SDS011;40258;53.936;27.540;2022-07-06T08:37:58;4.80;;;2.30;;
54360;SDS011;40258;53.936;27.540;2022-07-06T08:40:27;4.05;;;2.20;;
54360;SDS011;40258;53.936;27.540;2022-07-06T08:43:03;6.80;;;2.17;;
54360;SDS011;40258;53.936;27.540;2022-07-06T08:45:32;8.93;;;2.33;;
54360;SDS011;40258;53.936;27.540;2022-07-06T08:48:03;7.43;;;3.05;;
54360;SDS011;40258;53.936;27.540;2022-07-06T08:50:34;4.80;;;2.42;;
54360;SDS011;40258;53.936;27.540;2022-07-06T08:53:03;5.85;;;2.40;;
54360;SDS011;40258;53.936;27.540;2022-07-06T08:55:32;8.93;;;2.60;;
54360;SDS011;40258;53.936;27.540;2022-07-06T08:58:03;4.88;;;2.30;;
54360;SDS011;40258;53.936;27.540;2022-07-06T09:00:32;8.68;;;2.67;;
54360;SDS011;40258;53.936;27.540;2022-07-06T09:03:03;4.95;;;2.50;;
54360;SDS011;40258;53.936;27.540;2022-07-06T09:05:34;5.85;;;2.40;;
54360;SDS011;40258;53.936;27.540;2022-07-06T09:08:03;4.07;;;2.30;;
54360;SDS011;40258;53.936;27.540;2022-07-06T09:10:32;5.70;;;2.65;;
54360;SDS011;40258;53.936;27.540;2022-07-06T09:13:02;7.80;;;2.42;;
54360;SDS011;40258;53.936;27.540;2022-07-06T09:15:34;6.63;;;2.72;;
54360;SDS011;40258;53.936;27.540;2022-07-06T09:18:05;6.63;;;2.35;;
54360;SDS011;40258;53.936;27.540;2022-07-06T09:20:34;5.80;;;2.53;;
54360;SDS011;40258;53.936;27.540;2022-07-06T09:23:05;6.93;;;2.38;;
54360;SDS011;40258;53.936;27.540;2022-07-06T09:25:33;7.22;;;2.38;;
54360;SDS011;40258;53.936;27.540;2022-07-06T09:28:03;5.57;;;2.88;;
54360;SDS011;40258;53.936;27.540;2022-07-06T09:30:33;6.90;;;2.40;;
54360;SDS011;40258;53.936;27.540;2022-07-06T09:33:06;6.15;;;2.90;;
54360;SDS011;40258;53.936;27.540;2022-07-06T09:35:36;6.32;;;2.83;;
54360;SDS011;40258;53.936;27.540;2022-07-06T09:38:06;6.07;;;2.63;;
54360;SDS011;40258;53.936;27.540;2022-07-06T09:40:36;5.97;;;2.38;;
54360;SDS011;40258;53.936;27.540;2022-07-06T09:43:13;7.88;;;2.55;;
54360;SDS011;40258;53.936;27.540;2022-07-06T09:45:45;5.75;;;2.58;;
54360;SDS011;40258;53.936;27.540;2022-07-06T09:48:16;8.88;;;2.70;;
54360;SDS011;40258;53.936;27.540;2022-07-06T09:50:48;7.53;;;2.88;;
54360;SDS011;40258;53.936;27.540;2022-07-06T09:53:19;6.70;;;2.70;;
54360;SDS011;40258;53.936;27.540;2022-07-06T09:55:50;11.05;;;3.05;;
54360;SDS011;40258;53.936;27.540;2022-07-06T09:58:23;5.97;;;3.03;;
54360;SDS011;40258;53.936;27.540;2022-07-06T10:00:52;7.25;;;2.80;;
54360;SDS011;40258;53.936;27.540;2022-07-06T10:03:21;7.10;;;2.90;;
54360;SDS011;40258;53.936;27.540;2022-07-06T10:05:51;9.77;;;3.63;;
54360;SDS011;40258;53.936;27.540;2022-07-06T10:08:21;13.82;;;4.22;;
54360;SDS011;40258;53.936;27.540;2022-07-06T10:10:51;11.18;;;4.40;;
54360;SDS011;40258;53.936;27.540;2022-07-06T10:13:19;8.90;;;4.03;;
54360;SDS011;40258;53.936;27.540;2022-07-06T10:15:51;10.90;;;5.00;;
54360;SDS011;40258;53.936;27.540;2022-07-06T10:18:20;9.65;;;4.90;;
54360;SDS011;40258;53.936;27.540;2022-07-06T10:20:50;12.63;;;5.40;;
54360;SDS011;40258;53.936;27.540;2022-07-06T10:23:18;16.75;;;6.13;;
54360;SDS011;40258;53.936;27.540;2022-07-06T10:25:48;21.95;;;7.88;;
54360;SDS011;40258;53.936;27.540;2022-07-06T10:28:19;16.33;;;6.70;;
54360;SDS011;40258;53.936;27.540;2022-07-06T10:30:48;20.27;;;8.52;;
54360;SDS011;40258;53.936;27.540;2022-07-06T10:33:19;14.73;;;7.82;;
54360;SDS011;40258;53.936;27.540;2022-07-06T10:35:49;14.82;;;7.80;;
54360;SDS011;40258;53.936;27.540;2022-07-06T10:38:18;11.68;;;7.93;;
54360;SDS011;40258;53.936;27.540;2022-07-06T10:40:47;14.48;;;8.50;;
54360;SDS011;40258;53.936;27.540;2022-07-06T10:43:35;13.70;;;8.25;;
54360;SDS011;40258;53.936;27.540;2022-07-06T10:46:07;16.27;;;9.50;;
54360;SDS011;40258;53.936;27.540;2022-07-06T10:48:38;14.40;;;8.95;;
54360;SDS011;40258;53.936;27.540;2022-07-06T10:51:10;11.85;;;8.18;;
54360;SDS011;40258;53.936;27.540;2022-07-06T10:53:40;16.73;;;8.95;;
54360;SDS011;40258;53.936;27.540;2022-07-06T10:56:10;13.85;;;8.57;;
54360;SDS011;40258;53.936;27.540;2022-07-06T10:58:40;12.10;;;8.23;;
54360;SDS011;40258;53.936;27.540;2022-07-06T11:01:19;11.32;;;8.38;;
54360;SDS011;40258;53.936;27.540;2022-07-06T11:03:49;11.65;;;7.80;;
54360;SDS011;40258;53.936;27.540;2022-07-06T11:06:34;11.05;;;6.95;;
54360;SDS011;40258;53.936;27.540;2022-07-06T11:09:06;11.52;;;7.07;;
54360;SDS011;40258;53.936;27.540;2022-07-06T11:11:38;12.02;;;6.80;;
54360;SDS011;40258;53.936;27.540;2022-07-06T11:14:12;11.10;;;7.75;;
54360;SDS011;40258;53.936;27.540;2022-07-06T11:19:31;12.45;;;7.93;;
54360;SDS011;40258;53.936;27.540;2022-07-06T11:22:04;12.50;;;8.05;;
54360;SDS011;40258;53.936;27.540;2022-07-06T11:24:36;8.75;;;7.22;;
54360;SDS011;40258;53.936;27.540;2022-07-06T11:27:08;10.25;;;7.43;;
54360;SDS011;40258;53.936;27.540;2022-07-06T11:29:36;8.05;;;6.45;;
54360;SDS011;40258;53.936;27.540;2022-07-06T11:32:08;13.05;;;7.65;;
54360;SDS011;40258;53.936;27.540;2022-07-06T11:34:37;11.68;;;8.55;;
54360;SDS011;40258;53.936;27.540;2022-07-06T11:37:09;11.75;;;9.32;;
54360;SDS011;40258;53.936;27.540;2022-07-06T11:39:40;9.40;;;8.18;;
54360;SDS011;40258;53.936;27.540;2022-07-06T11:42:11;16.10;;;8.23;;
54360;SDS011;40258;53.936;27.540;2022-07-06T11:44:43;8.25;;;6.15;;
54360;SDS011;40258;53.936;27.540;2022-07-06T11:47:14;10.70;;;6.22;;
54360;SDS011;40258;53.936;27.540;2022-07-06T11:49:43;8.68;;;6.05;;
54360;SDS011;40258;53.936;27.540;2022-07-06T11:52:16;10.63;;;5.45;;
54360;SDS011;40258;53.936;27.540;2022-07-06T11:54:45;8.27;;;5.68;;
54360;SDS011;40258;53.936;27.540;2022-07-06T11:57:13;8.93;;;5.68;;
54360;SDS011;40258;53.936;27.540;2022-07-06T11:59:43;9.68;;;6.20;;
54360;SDS011;40258;53.936;27.540;2022-07-06T12:02:15;8.73;;;6.25;;
54360;SDS011;40258;53.936;27.540;2022-07-06T12:04:44;8.10;;;5.60;;
54360;SDS011;40258;53.936;27.540;2022-07-06T12:07:15;9.73;;;6.45;;
54360;SDS011;40258;53.936;27.540;2022-07-06T12:09:46;10.05;;;5.85;;
54360;SDS011;40258;53.936;27.540;2022-07-06T12:12:15;10.93;;;5.90;;
54360;SDS011;40258;53.936;27.540;2022-07-06T12:14:43;10.13;;;6.22;;
54360;SDS011;40258;53.936;27.540;2022-07-06T12:17:13;8.05;;;6.30;;
54360;SDS011;40258;53.936;27.540;2022-07-06T12:19:44;8.82;;;6.18;;
54360;SDS011;40258;53.936;27.540;2022-07-06T12:22:24;11.57;;;6.67;;
54360;SDS011;40258;53.936;27.540;2022-07-06T12:24:53;7.85;;;6.43;;
54360;SDS011;40258;53.936;27.540;2022-07-06T12:27:22;11.15;;;7.53;;
54360;SDS011;40258;53.936;27.540;2022-07-06T12:29:50;9.93;;;7.70;;
54360;SDS011;40258;53.936;27.540;2022-07-06T12:32:21;10.30;;;6.38;;
54360;SDS011;40258;53.936;27.540;2022-07-06T12:35:01;9.82;;;6.93;;
54360;SDS011;40258;53.936;27.540;2022-07-06T12:37:31;8.15;;;6.65;;
54360;SDS011;40258;53.936;27.540;2022-07-06T12:40:00;10.90;;;7.15;;
54360;SDS011;40258;53.936;27.540;2022-07-06T12:42:32;9.52;;;6.85;;
54360;SDS011;40258;53.936;27.540;2022-07-06T12:45:01;10.75;;;6.97;;
54360;SDS011;40258;53.936;27.540;2022-07-06T12:47:32;10.85;;;7.10;;
54360;SDS011;40258;53.936;27.540;2022-07-06T12:50:03;12.95;;;7.75;;
54360;SDS011;40258;53.936;27.540;2022-07-06T12:52:34;9.70;;;7.10;;
54360;SDS011;40258;53.936;27.540;2022-07-06T12:55:03;11.48;;;8.25;;
54360;SDS011;40258;53.936;27.540;2022-07-06T12:57:45;14.15;;;9.07;;
54360;SDS011;40258;53.936;27.540;2022-07-06T13:00:15;10.32;;;8.43;;
54360;SDS011;40258;53.936;27.540;2022-07-06T13:02:47;14.20;;;8.43;;
54360;SDS011;40258;53.936;27.540;2022-07-06T13:05:22;11.43;;;9.25;;
54360;SDS011;40258;53.936;27.540;2022-07-06T13:07:55;14.80;;;9.32;;
54360;SDS011;40258;53.936;27.540;2022-07-06T13:10:26;10.73;;;7.93;;
54360;SDS011;40258;53.936;27.540;2022-07-06T13:12:56;11.25;;;8.07;;
54360;SDS011;40258;53.936;27.540;2022-07-06T13:15:25;10.93;;;8.02;;
54360;SDS011;40258;53.936;27.540;2022-07-06T13:17:55;12.02;;;8.75;;
54360;SDS011;40258;53.936;27.540;2022-07-06T13:20:24;14.25;;;8.88;;
54360;SDS011;40258;53.936;27.540;2022-07-06T13:22:52;13.73;;;9.85;;
54360;SDS011;40258;53.936;27.540;2022-07-06T13:25:21;11.75;;;8.60;;
54360;SDS011;40258;53.936;27.540;2022-07-06T13:27:49;14.57;;;9.73;;
54360;SDS011;40258;53.936;27.540;2022-07-06T13:30:18;14.07;;;9.63;;
54360;SDS011;40258;53.936;27.540;2022-07-06T13:32:47;11.05;;;8.88;;
54360;SDS011;40258;53.936;27.540;2022-07-06T13:35:17;12.40;;;9.63;;
54360;SDS011;40258;53.936;27.540;2022-07-06T13:37:45;11.93;;;9.27;;
54360;SDS011;40258;53.936;27.540;2022-07-06T13:40:15;12.80;;;8.52;;
54360;SDS011;40258;53.936;27.540;2022-07-06T13:42:43;11.63;;;9.27;;
54360;SDS011;40258;53.936;27.540;2022-07-06T13:45:12;17.33;;;9.95;;
54360;SDS011;40258;53.936;27.540;2022-07-06T13:47:41;10.95;;;9.43;;
54360;SDS011;40258;53.936;27.540;2022-07-06T13:50:10;11.35;;;9.98;;
54360;SDS011;40258;53.936;27.540;2022-07-06T13:52:39;10.90;;;9.15;;
54360;SDS011;40258;53.936;27.540;2022-07-06T13:55:08;12.38;;;10.30;;
54360;SDS011;40258;53.936;27.540;2022-07-06T13:57:37;11.05;;;9.82;;
54360;SDS011;40258;53.936;27.540;2022-07-06T14:00:08;13.18;;;10.05;;
54360;SDS011;40258;53.936;27.540;2022-07-06T14:02:40;12.20;;;10.32;;
54360;SDS011;40258;53.936;27.540;2022-07-06T14:05:09;11.68;;;10.48;;
54360;SDS011;40258;53.936;27.540;2022-07-06T14:07:37;13.43;;;11.25;;
54360;SDS011;40258;53.936;27.540;2022-07-06T14:10:08;15.57;;;12.00;;
54360;SDS011;40258;53.936;27.540;2022-07-06T14:12:36;15.82;;;13.70;;
54360;SDS011;40258;53.936;27.540;2022-07-06T14:15:05;14.95;;;11.45;;
54360;SDS011;40258;53.936;27.540;2022-07-06T14:17:35;13.93;;;12.07;;
54360;SDS011;40258;53.936;27.540;2022-07-06T14:20:04;14.52;;;12.10;;
54360;SDS011;40258;53.936;27.540;2022-07-06T14:22:34;14.30;;;12.85;;
54360;SDS011;40258;53.936;27.540;2022-07-06T14:25:04;13.88;;;12.43;;
54360;SDS011;40258;53.936;27.540;2022-07-06T14:27:33;14.65;;;13.15;;
54360;SDS011;40258;53.936;27.540;2022-07-06T14:30:02;14.20;;;12.85;;
54360;SDS011;40258;53.936;27.540;2022-07-06T14:32:32;14.85;;;13.30;;
54360;SDS011;40258;53.936;27.540;2022-07-06T14:35:00;17.05;;;13.48;;
54360;SDS011;40258;53.936;27.540;2022-07-06T14:37:29;15.32;;;13.48;;
54360;SDS011;40258;53.936;27.540;2022-07-06T14:39:57;18.42;;;14.70;;
54360;SDS011;40258;53.936;27.540;2022-07-06T14:42:27;15.73;;;14.07;;
54360;SDS011;40258;53.936;27.540;2022-07-06T14:44:56;19.05;;;15.00;;
54360;SDS011;40258;53.936;27.540;2022-07-06T14:47:25;20.00;;;17.35;;
54360;SDS011;40258;53.936;27.540;2022-07-06T14:49:53;21.15;;;16.50;;